createdAt,value
2019-04-06T00:00:17.132Z,99.99
2019-04-06T00:01:17.131Z,99.99
2019-04-06T00:02:17.110Z,99.99
2019-04-06T00:03:17.104Z,99.99
2019-04-06T00:04:17.112Z,99.99
2019-04-06T00:05:17.085Z,99.99
2019-04-06T00:06:17.072Z,99.99
2019-04-06T00:07:17.075Z,99.99
2019-04-06T00:08:17.050Z,99.99
2019-04-06T00:09:17.105Z,99.99
2019-04-06T00:10:17.035Z,99.99
2019-04-06T00:11:17.015Z,99.99
2019-04-06T00:12:17.005Z,99.99
2019-04-06T00:13:16.999Z,99.99
2019-04-06T00:14:17.018Z,99.99
2019-04-06T00:15:16.972Z,99.99
2019-04-06T00:16:16.964Z,99.99
2019-04-06T00:17:16.970Z,99.99
2019-04-06T00:18:16.939Z,99.99
2019-04-06T00:19:16.960Z,99.99
2019-04-06T00:20:16.922Z,99.99
2019-04-06T00:21:16.903Z,99.99
2019-04-06T00:22:16.897Z,99.99
2019-04-06T00:23:16.940Z,99.99
2019-04-06T00:24:16.901Z,99.99
2019-04-06T00:25:16.860Z,99.99
2019-04-06T00:26:16.852Z,99.99
2019-04-06T00:27:16.843Z,99.99
2019-04-06T00:28:16.829Z,99.99
2019-04-06T00:29:16.859Z,99.99
2019-04-06T00:30:16.822Z,99.99
2019-04-06T00:31:16.796Z,99.99
2019-04-06T00:32:16.790Z,99.99
2019-04-06T00:33:16.784Z,99.99
2019-04-06T00:34:16.799Z,99.99
2019-04-06T00:35:16.758Z,99.99
2019-04-06T00:36:16.753Z,99.99
2019-04-06T00:37:16.732Z,99.99
2019-04-06T00:38:16.726Z,99.99
2019-04-06T00:39:16.741Z,99.99
2019-04-06T00:40:16.703Z,99.99
2019-04-06T00:41:16.692Z,99.99
2019-04-06T00:42:16.698Z,99.99
2019-04-06T00:43:16.678Z,99.99
2019-04-06T00:44:16.971Z,99.99
2019-04-06T00:45:16.658Z,99.99
2019-04-06T00:46:16.642Z,99.99
2019-04-06T00:47:16.639Z,99.99
2019-04-06T00:48:16.632Z,99.99
2019-04-06T00:49:16.643Z,99.99
2019-04-06T00:50:16.682Z,99.99
2019-04-06T00:51:16.595Z,99.99
2019-04-06T00:52:16.574Z,99.99
2019-04-06T00:53:16.566Z,99.99
2019-04-06T00:54:17.205Z,99.99
2019-04-06T00:55:16.592Z,99.99
2019-04-06T00:56:16.543Z,99.99
2019-04-06T00:57:16.515Z,99.99
2019-04-06T00:58:16.510Z,99.99
2019-04-06T00:59:16.578Z,99.99
2019-04-06T01:00:16.490Z,99.99
2019-04-06T01:01:16.480Z,99.99
2019-04-06T01:02:16.471Z,99.99
2019-04-06T01:03:16.455Z,99.99
2019-04-06T01:04:16.469Z,99.99
2019-04-06T01:05:16.501Z,99.99
2019-04-06T01:06:16.419Z,99.99
2019-04-06T01:07:16.417Z,99.99
2019-04-06T01:08:16.406Z,99.99
2019-04-06T01:09:16.416Z,99.99
2019-04-06T01:10:16.397Z,99.99
2019-04-06T01:11:16.386Z,99.99
2019-04-06T01:12:16.370Z,99.99
2019-04-06T01:13:16.425Z,99.99
2019-04-06T01:14:16.377Z,99.99
2019-04-06T01:15:16.333Z,99.99
2019-04-06T01:16:16.343Z,99.99
2019-04-06T01:17:16.320Z,99.99
2019-04-06T01:18:16.306Z,99.99
2019-04-06T01:19:16.337Z,99.99
2019-04-06T01:20:16.281Z,99.99
2019-04-06T01:21:16.270Z,99.99
2019-04-06T01:22:16.313Z,99.99
2019-04-06T01:23:16.260Z,99.99
2019-04-06T01:24:16.281Z,99.99
2019-04-06T01:25:16.225Z,99.99
2019-04-06T01:26:16.230Z,99.99
2019-04-06T01:27:16.210Z,99.99
2019-04-06T01:28:16.207Z,99.99
2019-04-06T01:29:16.221Z,99.99
2019-04-06T01:30:16.247Z,99.99
2019-04-06T01:31:16.163Z,99.99
2019-04-06T01:32:16.143Z,99.99
2019-04-06T01:33:16.133Z,99.99
2019-04-06T01:34:16.152Z,99.99
2019-04-06T01:35:16.109Z,99.99
2019-04-06T01:36:16.109Z,99.99
2019-04-06T01:37:16.099Z,99.99
2019-04-06T01:38:16.158Z,99.99
2019-04-06T01:39:16.108Z,99.99
2019-04-06T01:40:16.060Z,99.99
2019-04-06T01:41:16.046Z,99.99
2019-04-06T01:42:16.042Z,99.99
2019-04-06T01:43:16.033Z,99.99
2019-04-06T01:44:16.046Z,99.99
2019-04-06T01:45:16.010Z,99.99
2019-04-06T01:46:15.998Z,99.99
2019-04-06T01:47:15.987Z,99.99
2019-04-06T01:48:15.973Z,99.99
2019-04-06T01:49:16.093Z,99.99
2019-04-06T01:50:15.951Z,99.99
2019-04-06T01:51:15.953Z,99.99
2019-04-06T01:52:15.923Z,99.99
2019-04-06T01:53:15.919Z,99.99
2019-04-06T01:54:15.935Z,99.99
2019-04-06T01:55:15.898Z,99.99
2019-04-06T01:56:18.777Z,99.99
2019-04-06T01:57:15.874Z,99.99
2019-04-06T01:58:15.859Z,99.99
2019-04-06T01:59:15.873Z,99.99
2019-04-06T02:00:15.843Z,99.99
2019-04-06T02:01:15.829Z,99.99
2019-04-06T02:02:15.822Z,99.99
2019-04-06T02:03:15.807Z,99.99
2019-04-06T02:04:15.830Z,99.99
2019-04-06T02:05:15.826Z,99.99
2019-04-06T02:06:15.774Z,99.99
2019-04-06T02:07:15.761Z,99.99
2019-04-06T02:08:15.808Z,99.99
2019-04-06T02:09:15.781Z,99.99
2019-04-06T02:10:15.740Z,99.99
2019-04-06T02:11:15.730Z,99.99
2019-04-06T02:12:15.713Z,99.99
2019-04-06T02:13:15.719Z,99.99
2019-04-06T02:14:15.732Z,99.99
2019-04-06T02:15:15.690Z,99.99
2019-04-06T02:16:15.680Z,99.99
2019-04-06T02:17:15.669Z,99.99
2019-04-06T02:18:15.667Z,99.99
2019-04-06T02:19:15.680Z,99.99
2019-04-06T02:20:15.643Z,99.99
2019-04-06T02:21:15.626Z,99.99
2019-04-06T02:22:15.624Z,99.99
2019-04-06T02:23:15.613Z,99.99
2019-04-06T02:24:15.617Z,99.99
2019-04-06T02:25:15.583Z,99.99
2019-04-06T02:26:15.573Z,99.99
2019-04-06T02:27:15.562Z,99.99
2019-04-06T02:28:15.549Z,99.99
2019-04-06T02:29:15.623Z,99.99
2019-04-06T02:30:15.551Z,99.99
2019-04-06T02:31:15.527Z,99.99
2019-04-06T02:32:15.511Z,99.99
2019-04-06T02:33:15.502Z,99.99
2019-04-06T02:34:15.515Z,99.99
2019-04-06T02:35:15.480Z,99.99
2019-04-06T02:36:15.469Z,99.99
2019-04-06T02:37:15.468Z,99.99
2019-04-06T02:38:15.472Z,99.99
2019-04-06T02:39:15.458Z,99.99
2019-04-06T02:40:15.482Z,99.99
2019-04-06T02:41:15.426Z,99.99
2019-04-06T02:42:15.410Z,99.99
2019-04-06T02:43:15.386Z,99.99
2019-04-06T02:44:15.412Z,99.99
2019-04-06T02:45:15.370Z,99.99
2019-04-06T02:46:15.360Z,99.99
2019-04-06T02:47:15.346Z,99.99
2019-04-06T02:48:15.348Z,99.99
2019-04-06T02:49:15.352Z,99.99
2019-04-06T02:50:15.315Z,99.99
2019-04-06T02:51:15.297Z,99.99
2019-04-06T02:52:15.296Z,99.99
2019-04-06T02:53:15.451Z,99.99
2019-04-06T02:54:15.330Z,99.99
2019-04-06T02:55:15.253Z,99.99
2019-04-06T02:56:15.252Z,99.99
2019-04-06T02:57:15.246Z,99.99
2019-04-06T02:58:15.225Z,99.99
2019-04-06T02:59:15.238Z,99.99
2019-04-06T03:00:15.195Z,99.99
2019-04-06T03:01:15.187Z,99.99
2019-04-06T03:02:15.197Z,99.99
2019-04-06T03:03:15.176Z,99.99
2019-04-06T03:04:15.191Z,99.99
2019-04-06T03:05:15.160Z,99.99
2019-04-06T03:06:15.139Z,99.99
2019-04-06T03:07:15.130Z,99.99
2019-04-06T03:08:15.125Z,99.99
2019-04-06T03:09:15.222Z,99.99
2019-04-06T03:10:15.098Z,99.99
2019-04-06T03:11:15.096Z,99.99
2019-04-06T03:12:15.075Z,99.99
2019-04-06T03:13:15.060Z,99.99
2019-04-06T03:14:15.078Z,99.99
2019-04-06T03:15:15.073Z,99.99
2019-04-06T03:16:15.040Z,99.99
2019-04-06T03:17:15.044Z,99.99
2019-04-06T03:18:15.012Z,99.99
2019-04-06T03:19:15.004Z,99.99
2019-04-06T03:20:15.014Z,99.99
2019-04-06T03:21:15.014Z,99.99
2019-04-06T03:22:14.966Z,99.99
2019-04-06T03:23:15.157Z,99.99
2019-04-06T03:24:14.962Z,99.99
2019-04-06T03:25:14.961Z,99.99
2019-04-06T03:26:14.928Z,99.99
2019-04-06T03:27:14.911Z,99.99
2019-04-06T03:28:14.909Z,99.99
2019-04-06T03:29:14.898Z,99.99
2019-04-06T03:30:14.925Z,99.99
2019-04-06T03:31:14.881Z,99.99
2019-04-06T03:32:14.893Z,99.99
2019-04-06T03:33:14.869Z,99.99
2019-04-06T03:34:20.011Z,99.99
2019-04-06T03:35:15.861Z,99.99
2019-04-06T03:36:14.823Z,99.99
2019-04-06T03:37:14.818Z,99.99
2019-04-06T03:38:14.954Z,99.99
2019-04-06T03:39:14.788Z,99.99
2019-04-06T03:40:14.802Z,99.99
2019-04-06T03:41:14.762Z,99.99
2019-04-06T03:42:14.835Z,99.99
2019-04-06T03:43:14.742Z,99.99
2019-04-06T03:44:14.731Z,99.99
2019-04-06T03:45:14.959Z,99.99
2019-04-06T03:46:14.895Z,99.99
2019-04-06T03:47:14.702Z,99.99
2019-04-06T03:48:14.696Z,99.99
2019-04-06T03:49:14.674Z,99.99
2019-04-06T03:50:14.698Z,99.99
2019-04-06T03:51:14.663Z,99.99
2019-04-06T03:52:14.642Z,99.99
2019-04-06T03:53:14.794Z,99.99
2019-04-06T03:54:14.624Z,99.99
2019-04-06T03:55:14.735Z,99.99
2019-04-06T03:56:14.600Z,99.99
2019-04-06T03:57:16.911Z,99.99
2019-04-06T03:58:14.580Z,99.99
2019-04-06T03:59:14.576Z,99.99
2019-04-06T04:00:14.595Z,99.99
2019-04-06T04:01:14.541Z,99.99
2019-04-06T04:02:14.550Z,99.99
2019-04-06T04:03:14.536Z,99.99
2019-04-06T04:04:14.516Z,99.99
2019-04-06T04:05:14.547Z,99.99
2019-04-06T04:06:14.488Z,99.99
2019-04-06T04:07:14.532Z,99.99
2019-04-06T04:08:14.471Z,99.99
2019-04-06T04:09:14.461Z,99.99
2019-04-06T04:10:14.698Z,99.99
2019-04-06T04:11:14.435Z,99.99
2019-04-06T04:12:14.423Z,99.99
2019-04-06T04:13:14.478Z,99.99
2019-04-06T04:14:14.419Z,99.99
2019-04-06T04:15:14.430Z,99.99
2019-04-06T04:16:14.379Z,99.99
2019-04-06T04:17:14.369Z,99.99
2019-04-06T04:18:14.355Z,99.99
2019-04-06T04:19:14.480Z,99.99
2019-04-06T04:20:14.356Z,99.99
2019-04-06T04:21:14.319Z,99.99
2019-04-06T04:22:14.314Z,99.99
2019-04-06T04:23:14.313Z,99.99
2019-04-06T04:24:14.292Z,99.99
2019-04-06T04:25:14.312Z,99.99
2019-04-06T04:26:14.445Z,99.99
2019-04-06T04:27:27.333Z,99.99
2019-04-06T04:28:15.241Z,99.99
2019-04-06T04:29:14.240Z,99.99
2019-04-06T04:30:15.617Z,99.99
2019-04-06T04:31:14.234Z,99.99
2019-04-06T04:32:14.197Z,99.99
2019-04-06T04:33:14.265Z,99.99
2019-04-06T04:34:14.338Z,99.99
2019-04-06T04:35:14.198Z,99.99
2019-04-06T04:36:14.159Z,99.99
2019-04-06T04:37:14.161Z,99.99
2019-04-06T04:38:14.154Z,99.99
2019-04-06T04:39:14.125Z,99.99
2019-04-06T04:40:14.156Z,99.99
2019-04-06T04:41:14.292Z,99.99
2019-04-06T04:42:14.118Z,99.99
2019-04-06T04:43:14.097Z,99.90
2019-04-06T04:44:14.202Z,99.99
2019-04-06T04:45:14.151Z,99.99
2019-04-06T04:46:14.086Z,99.99
2019-04-06T04:47:14.046Z,99.99
2019-04-06T04:48:14.039Z,99.99
2019-04-06T04:49:14.018Z,99.99
2019-04-06T04:50:14.045Z,99.99
2019-04-06T04:51:14.005Z,99.90
2019-04-06T04:52:14.079Z,99.99
2019-04-06T04:53:14.064Z,99.99
2019-04-06T04:54:13.972Z,99.99
2019-04-06T04:55:13.988Z,99.90
2019-04-06T04:56:13.942Z,99.99
2019-04-06T04:57:13.934Z,99.99
2019-04-06T04:58:13.921Z,99.90
2019-04-06T04:59:13.917Z,99.99
2019-04-06T05:00:13.922Z,99.99
2019-04-06T05:01:13.885Z,99.99
2019-04-06T05:02:13.877Z,99.99
2019-04-06T05:03:13.875Z,99.99
2019-04-06T05:04:13.855Z,99.99
2019-04-06T05:05:13.898Z,99.99
2019-04-06T05:06:13.836Z,99.99
2019-04-06T05:07:13.822Z,99.99
2019-04-06T05:08:13.812Z,99.99
2019-04-06T05:09:13.808Z,99.99
2019-04-06T05:10:13.814Z,99.99
2019-04-06T05:11:13.784Z,99.99
2019-04-06T05:12:13.766Z,99.99
2019-04-06T05:13:13.763Z,99.99
2019-04-06T05:14:13.752Z,99.85
2019-04-06T05:15:13.768Z,99.99
2019-04-06T05:16:13.734Z,99.99
2019-04-06T05:17:13.718Z,99.99
2019-04-06T05:18:13.717Z,99.99
2019-04-06T05:19:13.700Z,99.99
2019-04-06T05:20:13.723Z,99.90
2019-04-06T05:21:13.856Z,99.99
2019-04-06T05:22:13.679Z,99.49
2019-04-06T05:23:13.666Z,99.70
2019-04-06T05:24:13.652Z,99.70
2019-04-06T05:25:13.663Z,99.99
2019-04-06T05:26:13.620Z,99.80
2019-04-06T05:27:13.634Z,99.60
2019-04-06T05:28:13.614Z,99.49
2019-04-06T05:29:24.638Z,99.18
2019-04-06T05:30:13.615Z,98.88
2019-04-06T05:31:13.563Z,98.77
2019-04-06T05:32:13.659Z,99.18
2019-04-06T05:33:13.544Z,98.88
2019-04-06T05:34:13.529Z,98.97
2019-04-06T05:35:13.565Z,99.18
2019-04-06T05:36:13.518Z,98.97
2019-04-06T05:37:13.495Z,98.32
2019-04-06T05:38:13.490Z,98.72
2019-04-06T05:39:13.471Z,98.42
2019-04-06T05:40:13.499Z,98.42
2019-04-06T05:41:13.457Z,98.11
2019-04-06T05:42:13.449Z,98.46
2019-04-06T05:43:13.434Z,98.57
2019-04-06T05:44:13.425Z,98.32
2019-04-06T05:45:13.458Z,98.52
2019-04-06T05:46:13.435Z,98.52
2019-04-06T05:47:13.388Z,98.52
2019-04-06T05:48:13.385Z,98.11
2019-04-06T05:49:13.373Z,98.42
2019-04-06T05:50:13.382Z,98.32
2019-04-06T05:51:13.354Z,97.90
2019-04-06T05:52:13.343Z,97.80
2019-04-06T05:53:13.323Z,97.60
2019-04-06T05:54:13.315Z,98.00
2019-04-06T05:55:13.336Z,97.80
2019-04-06T05:56:13.295Z,98.00
2019-04-06T05:57:13.286Z,97.69
2019-04-06T05:58:13.279Z,98.00
2019-04-06T05:59:13.263Z,97.90
2019-04-06T06:00:13.285Z,97.80
2019-04-06T06:01:13.239Z,97.69
2019-04-06T06:02:13.223Z,97.80
2019-04-06T06:03:15.323Z,97.69
2019-04-06T06:04:13.208Z,97.80
2019-04-06T06:05:13.225Z,97.34
2019-04-06T06:06:13.425Z,97.55
2019-04-06T06:07:13.176Z,97.86
2019-04-06T06:08:13.158Z,97.03
2019-04-06T06:09:13.154Z,97.34
2019-04-06T06:10:13.183Z,97.65
2019-04-06T06:11:13.128Z,97.03
2019-04-06T06:12:13.118Z,97.14
2019-04-06T06:13:13.111Z,96.27
2019-04-06T06:14:13.097Z,96.11
2019-04-06T06:15:13.107Z,96.00
2019-04-06T06:16:13.080Z,95.65
2019-04-06T06:17:14.371Z,95.96
2019-04-06T06:18:13.055Z,95.45
2019-04-06T06:19:13.053Z,95.65
2019-04-06T06:20:13.056Z,95.61
2019-04-06T06:21:13.027Z,95.40
2019-04-06T06:22:13.007Z,95.92
2019-04-06T06:23:12.999Z,95.09
2019-04-06T06:24:13.199Z,95.71
2019-04-06T06:25:13.007Z,95.36
2019-04-06T06:26:12.969Z,95.40
2019-04-06T06:27:12.960Z,95.36
2019-04-06T06:28:15.090Z,95.46
2019-04-06T06:29:12.940Z,94.43
2019-04-06T06:30:12.949Z,94.95
2019-04-06T06:31:12.919Z,95.36
2019-04-06T06:32:12.908Z,95.15
2019-04-06T06:33:12.887Z,94.64
2019-04-06T06:34:12.881Z,94.70
2019-04-06T06:35:13.039Z,94.39
2019-04-06T06:36:12.856Z,93.98
2019-04-06T06:37:12.849Z,94.08
2019-04-06T06:38:12.840Z,93.83
2019-04-06T06:39:12.823Z,93.26
2019-04-06T06:40:12.847Z,94.29
2019-04-06T06:41:12.807Z,94.34
2019-04-06T06:42:13.017Z,93.63
2019-04-06T06:43:12.785Z,94.14
2019-04-06T06:44:12.786Z,93.21
2019-04-06T06:45:12.798Z,93.32
2019-04-06T06:46:12.758Z,93.12
2019-04-06T06:47:12.742Z,93.73
2019-04-06T06:48:12.730Z,94.24
2019-04-06T06:49:12.728Z,94.04
2019-04-06T06:50:12.734Z,93.21
2019-04-06T06:51:12.695Z,93.93
2019-04-06T06:52:12.690Z,92.70
2019-04-06T06:53:12.676Z,93.73
2019-04-06T06:54:12.666Z,93.21
2019-04-06T06:55:12.678Z,93.27
2019-04-06T06:56:12.659Z,92.25
2019-04-06T06:57:12.630Z,93.17
2019-04-06T06:58:12.619Z,93.17
2019-04-06T06:59:12.607Z,93.27
2019-04-06T07:00:12.621Z,93.17
2019-04-06T07:01:12.771Z,93.07
2019-04-06T07:02:12.574Z,93.07
2019-04-06T07:03:12.636Z,92.41
2019-04-06T07:04:12.556Z,92.25
2019-04-06T07:05:12.543Z,92.82
2019-04-06T07:06:12.625Z,92.35
2019-04-06T07:07:12.527Z,92.41
2019-04-06T07:08:12.516Z,92.31
2019-04-06T07:09:12.496Z,91.80
2019-04-06T07:10:12.483Z,92.21
2019-04-06T07:11:12.506Z,91.80
2019-04-06T07:12:12.463Z,92.21
2019-04-06T07:13:12.456Z,91.65
2019-04-06T07:14:12.469Z,91.86
2019-04-06T07:15:12.432Z,90.73
2019-04-06T07:16:12.446Z,91.75
2019-04-06T07:17:12.414Z,91.14
2019-04-06T07:18:12.396Z,91.24
2019-04-06T07:19:12.384Z,91.24
2019-04-06T07:20:12.554Z,91.03
2019-04-06T07:21:12.387Z,91.86
2019-04-06T07:22:12.362Z,91.20
2019-04-06T07:23:12.339Z,90.69
2019-04-06T07:24:12.345Z,90.32
2019-04-06T07:25:12.548Z,90.79
2019-04-06T07:26:12.336Z,90.17
2019-04-06T07:27:12.304Z,90.42
2019-04-06T07:28:12.284Z,90.93
2019-04-06T07:29:12.340Z,90.69
2019-04-06T07:30:12.263Z,91.30
2019-04-06T07:31:12.274Z,90.79
2019-04-06T07:32:12.304Z,90.95
2019-04-06T07:33:12.229Z,89.83
2019-04-06T07:34:12.227Z,90.03
2019-04-06T07:35:12.216Z,89.83
2019-04-06T07:36:12.362Z,89.72
2019-04-06T07:37:12.188Z,89.62
2019-04-06T07:38:12.178Z,90.03
2019-04-06T07:39:12.162Z,88.49
2019-04-06T07:40:12.176Z,89.11
2019-04-06T07:41:12.187Z,89.76
2019-04-06T07:42:12.130Z,90.03
2019-04-06T07:43:12.123Z,89.51
2019-04-06T07:44:12.111Z,88.70
2019-04-06T07:45:12.225Z,89.72
2019-04-06T07:46:12.115Z,89.83
2019-04-06T07:47:12.089Z,89.89
2019-04-06T07:48:12.189Z,87.98
2019-04-06T07:49:12.213Z,87.77
2019-04-06T07:50:12.058Z,89.15
2019-04-06T07:51:12.066Z,90.07
2019-04-06T07:52:12.027Z,90.07
2019-04-06T07:53:12.011Z,89.97
2019-04-06T07:54:12.007Z,89.66
2019-04-06T07:55:11.990Z,88.84
2019-04-06T07:56:12.002Z,88.23
2019-04-06T07:57:12.091Z,89.15
2019-04-06T07:58:11.964Z,89.72
2019-04-06T07:59:11.949Z,88.23
2019-04-06T08:00:11.939Z,88.23
2019-04-06T08:01:11.950Z,89.83
2019-04-06T08:02:11.918Z,89.00
2019-04-06T08:03:11.962Z,88.59
2019-04-06T08:04:11.899Z,88.90
2019-04-06T08:05:11.882Z,88.49
2019-04-06T08:06:11.903Z,89.92
2019-04-06T08:07:11.859Z,89.11
2019-04-06T08:08:11.854Z,88.80
2019-04-06T08:09:12.046Z,87.88
2019-04-06T08:10:11.829Z,89.83
2019-04-06T08:11:11.847Z,87.94
2019-04-06T08:12:11.808Z,87.98
2019-04-06T08:13:11.965Z,88.45
2019-04-06T08:14:11.788Z,87.32
2019-04-06T08:15:11.777Z,86.91
2019-04-06T08:16:11.790Z,86.81
2019-04-06T08:17:11.807Z,87.63
2019-04-06T08:18:11.752Z,86.81
2019-04-06T08:19:11.789Z,86.81
2019-04-06T08:20:11.783Z,86.43
2019-04-06T08:21:11.734Z,85.61
2019-04-06T08:22:11.702Z,85.96
2019-04-06T08:23:11.986Z,87.24
2019-04-06T08:24:11.887Z,85.91
2019-04-06T08:25:11.668Z,85.40
2019-04-06T08:26:11.677Z,86.43
2019-04-06T08:27:11.645Z,85.67
2019-04-06T08:28:11.644Z,86.02
2019-04-06T08:29:11.639Z,87.10
2019-04-06T08:30:11.615Z,85.73
2019-04-06T08:31:11.814Z,84.81
2019-04-06T08:32:11.590Z,85.02
2019-04-06T08:33:11.579Z,85.22
2019-04-06T08:34:13.775Z,84.33
2019-04-06T08:35:11.557Z,83.40
2019-04-06T08:36:11.645Z,82.61
2019-04-06T08:37:11.538Z,82.41
2019-04-06T08:38:11.666Z,83.02
2019-04-06T08:39:11.524Z,81.39
2019-04-06T08:40:11.510Z,81.49
2019-04-06T08:41:11.539Z,82.04
2019-04-06T08:42:11.491Z,83.98
2019-04-06T08:43:11.481Z,81.49
2019-04-06T08:44:11.483Z,81.32
2019-04-06T08:45:13.663Z,82.45
2019-04-06T08:46:11.509Z,82.24
2019-04-06T08:47:11.450Z,81.80
2019-04-06T08:48:11.440Z,79.99
2019-04-06T08:49:11.415Z,76.52
2019-04-06T08:50:11.483Z,76.35
2019-04-06T08:51:11.422Z,76.86
2019-04-06T08:52:11.888Z,74.99
2019-04-06T08:53:11.442Z,77.95
2019-04-06T08:54:11.426Z,77.95
2019-04-06T08:55:11.414Z,78.83
2019-04-06T08:56:11.458Z,79.52
2019-04-06T08:57:11.335Z,79.89
2019-04-06T08:58:11.390Z,79.85
2019-04-06T08:59:13.322Z,78.89
2019-04-06T09:00:11.290Z,79.79
2019-04-06T09:01:11.310Z,76.90
2019-04-06T09:02:11.279Z,76.99
2019-04-06T09:03:11.336Z,74.48
2019-04-06T09:04:11.250Z,74.62
2019-04-06T09:05:11.247Z,74.04
2019-04-06T09:06:11.251Z,76.35
2019-04-06T09:07:11.216Z,76.35
2019-04-06T09:08:11.242Z,74.55
2019-04-06T09:09:11.199Z,74.24
2019-04-06T09:10:11.182Z,71.36
2019-04-06T09:11:11.426Z,71.91
2019-04-06T09:12:11.161Z,72.82
2019-04-06T09:13:11.153Z,72.82
2019-04-06T09:14:11.149Z,75.56
2019-04-06T09:15:11.134Z,73.13
2019-04-06T09:16:11.156Z,73.67
2019-04-06T09:17:11.117Z,73.91
2019-04-06T09:18:11.332Z,74.21
2019-04-06T09:19:11.092Z,72.85
2019-04-06T09:20:11.079Z,70.59
2019-04-06T09:21:11.087Z,69.88
2019-04-06T09:22:11.061Z,69.78
2019-04-06T09:23:11.043Z,68.87
2019-04-06T09:24:11.042Z,71.00
2019-04-06T09:25:11.032Z,69.92
2019-04-06T09:26:11.035Z,66.74
2019-04-06T09:27:10.998Z,67.62
2019-04-06T09:28:10.987Z,66.47
2019-04-06T09:29:21.915Z,69.37
2019-04-06T09:30:11.965Z,71.09
2019-04-06T09:31:10.985Z,71.53
2019-04-06T09:32:10.955Z,73.19
2019-04-06T09:33:10.935Z,73.94
2019-04-06T09:34:10.928Z,75.74
2019-04-06T09:35:10.912Z,76.76
2019-04-06T09:36:10.934Z,75.91
2019-04-06T09:37:10.896Z,76.52
2019-04-06T09:38:10.881Z,76.99
2019-04-06T09:39:10.873Z,75.02
2019-04-06T09:40:10.863Z,73.29
2019-04-06T09:41:10.879Z,70.72
2019-04-06T09:42:10.835Z,70.59
2019-04-06T09:43:10.943Z,70.49
2019-04-06T09:44:10.824Z,66.50
2019-04-06T09:45:10.806Z,70.73
2019-04-06T09:46:10.825Z,64.76
2019-04-06T09:47:10.789Z,64.64
2019-04-06T09:48:10.772Z,65.06
2019-04-06T09:49:10.762Z,69.98
2019-04-06T09:50:10.770Z,72.38
2019-04-06T09:51:10.766Z,72.75
2019-04-06T09:52:10.744Z,72.92
2019-04-06T09:53:11.001Z,68.56
2019-04-06T09:54:10.780Z,67.45
2019-04-06T09:55:10.705Z,67.41
2019-04-06T09:56:10.715Z,70.92
2019-04-06T09:57:10.678Z,71.30
2019-04-06T09:58:10.662Z,70.76
2019-04-06T09:59:10.903Z,70.25
2019-04-06T10:00:10.645Z,72.04
2019-04-06T10:01:10.661Z,70.96
2019-04-06T10:02:10.622Z,70.01
2019-04-06T10:03:10.610Z,67.05
2019-04-06T10:04:10.777Z,67.05
2019-04-06T10:05:10.706Z,67.68
2019-04-06T10:06:10.599Z,70.59
2019-04-06T10:07:10.563Z,68.70
2019-04-06T10:08:10.557Z,66.81
2019-04-06T10:09:10.560Z,65.17
2019-04-06T10:10:10.531Z,64.84
2019-04-06T10:11:10.554Z,64.13
2019-04-06T10:12:10.515Z,65.13
2019-04-06T10:13:10.506Z,68.52
2019-04-06T10:14:10.520Z,70.55
2019-04-06T10:15:10.488Z,71.53
2019-04-06T10:16:10.493Z,72.69
2019-04-06T10:17:10.459Z,67.51
2019-04-06T10:18:10.649Z,69.47
2019-04-06T10:19:10.438Z,68.90
2019-04-06T10:20:10.620Z,66.35
2019-04-06T10:21:10.452Z,64.90
2019-04-06T10:22:10.410Z,64.64
2019-04-06T10:23:10.396Z,64.13
2019-04-06T10:24:10.386Z,64.36
2019-04-06T10:25:11.393Z,61.77
2019-04-06T10:26:10.397Z,60.64
2019-04-06T10:27:10.352Z,64.40
2019-04-06T10:28:10.339Z,62.99
2019-04-06T10:29:10.334Z,61.68
2019-04-06T10:30:10.320Z,63.96
2019-04-06T10:31:10.441Z,60.87
2019-04-06T10:32:10.300Z,63.02
2019-04-06T10:33:10.291Z,63.55
2019-04-06T10:34:10.284Z,64.23
2019-04-06T10:35:10.398Z,63.65
2019-04-06T10:36:10.279Z,65.19
2019-04-06T10:37:10.243Z,65.29
2019-04-06T10:38:10.235Z,66.01
2019-04-06T10:39:10.224Z,64.84
2019-04-06T10:40:10.210Z,62.62
2019-04-06T10:41:10.231Z,62.48
2019-04-06T10:42:10.387Z,60.87
2019-04-06T10:43:10.179Z,59.83
2019-04-06T10:44:10.172Z,62.08
2019-04-06T10:45:10.164Z,62.48
2019-04-06T10:46:10.182Z,62.55
2019-04-06T10:47:10.344Z,58.49
2019-04-06T10:48:10.135Z,60.41
2019-04-06T10:49:10.121Z,62.48
2019-04-06T10:50:10.107Z,60.19
2019-04-06T10:51:10.147Z,62.24
2019-04-06T10:52:10.089Z,62.11
2019-04-06T10:53:10.084Z,60.44
2019-04-06T10:54:10.067Z,63.13
2019-04-06T10:55:10.055Z,57.98
2019-04-06T10:56:10.177Z,61.47
2019-04-06T10:57:10.035Z,60.61
2019-04-06T10:58:10.024Z,59.93
2019-04-06T10:59:10.021Z,61.83
2019-04-06T11:00:10.003Z,61.71
2019-04-06T11:01:10.112Z,60.82
2019-04-06T11:02:09.983Z,62.10
2019-04-06T11:03:09.973Z,66.97
2019-04-06T11:04:10.987Z,66.64
2019-04-06T11:05:09.959Z,65.45
2019-04-06T11:06:09.969Z,64.38
2019-04-06T11:07:09.933Z,63.81
2019-04-06T11:08:09.925Z,62.28
2019-04-06T11:09:09.909Z,61.21
2019-04-06T11:10:09.906Z,57.98
2019-04-06T11:11:09.913Z,59.77
2019-04-06T11:12:10.136Z,58.09
2019-04-06T11:13:09.866Z,53.40
2019-04-06T11:14:09.860Z,55.26
2019-04-06T11:15:09.845Z,58.01
2019-04-06T11:16:09.857Z,58.07
2019-04-06T11:17:09.980Z,56.92
2019-04-06T11:18:09.812Z,57.56
2019-04-06T11:19:10.195Z,58.39
2019-04-06T11:20:09.800Z,58.55
2019-04-06T11:21:09.815Z,54.55
2019-04-06T11:22:09.772Z,58.38
2019-04-06T11:23:09.770Z,56.34
2019-04-06T11:24:09.767Z,56.51
2019-04-06T11:25:09.744Z,55.46
2019-04-06T11:26:09.762Z,54.60
2019-04-06T11:27:09.744Z,54.46
2019-04-06T11:28:09.844Z,56.41
2019-04-06T11:29:09.698Z,53.88
2019-04-06T11:30:13.472Z,53.80
2019-04-06T11:31:09.827Z,54.91
2019-04-06T11:32:09.890Z,55.36
2019-04-06T11:33:09.655Z,56.09
2019-04-06T11:34:09.647Z,55.54
2019-04-06T11:35:09.637Z,55.51
2019-04-06T11:36:09.880Z,54.98
2019-04-06T11:37:09.619Z,55.23
2019-04-06T11:38:09.629Z,54.48
2019-04-06T11:39:09.599Z,52.87
2019-04-06T11:40:09.584Z,51.69
2019-04-06T11:41:09.607Z,53.50
2019-04-06T11:42:09.560Z,54.35
2019-04-06T11:43:09.773Z,56.55
2019-04-06T11:44:09.541Z,56.42
2019-04-06T11:45:09.529Z,55.31
2019-04-06T11:46:09.704Z,55.49
2019-04-06T11:47:09.510Z,55.66
2019-04-06T11:48:09.496Z,55.36
2019-04-06T11:49:09.486Z,53.60
2019-04-06T11:50:09.485Z,52.62
2019-04-06T11:51:09.585Z,52.32
2019-04-06T11:52:09.461Z,54.33
2019-04-06T11:53:09.846Z,54.53
2019-04-06T11:54:09.432Z,56.62
2019-04-06T11:55:09.435Z,54.23
2019-04-06T11:56:09.439Z,55.56
2019-04-06T11:57:09.404Z,55.87
2019-04-06T11:58:09.612Z,54.20
2019-04-06T11:59:09.388Z,52.80
2019-04-06T12:00:09.462Z,54.00
2019-04-06T12:01:09.394Z,54.66
2019-04-06T12:02:09.349Z,55.79
2019-04-06T12:03:09.347Z,54.53
2019-04-06T12:04:09.335Z,56.85
2019-04-06T12:05:09.317Z,55.26
2019-04-06T12:06:09.331Z,54.98
2019-04-06T12:07:09.310Z,54.83
2019-04-06T12:08:09.285Z,55.59
2019-04-06T12:09:09.306Z,57.89
2019-04-06T12:10:09.344Z,54.93
2019-04-06T12:11:09.290Z,55.66
2019-04-06T12:12:09.608Z,53.70
2019-04-06T12:13:09.251Z,55.51
2019-04-06T12:14:09.229Z,53.70
2019-04-06T12:15:09.444Z,55.33
2019-04-06T12:16:09.237Z,54.85
2019-04-06T12:17:09.192Z,50.59
2019-04-06T12:18:09.201Z,53.02
2019-04-06T12:19:09.177Z,52.39
2019-04-06T12:20:09.171Z,52.12
2019-04-06T12:21:09.225Z,54.68
2019-04-06T12:22:09.144Z,53.07
2019-04-06T12:23:09.146Z,52.42
2019-04-06T12:24:09.132Z,51.49
2019-04-06T12:25:09.109Z,52.94
2019-04-06T12:26:09.389Z,53.65
2019-04-06T12:27:09.191Z,52.09
2019-04-06T12:28:09.077Z,52.19
2019-04-06T12:29:09.069Z,49.61
2019-04-06T12:30:09.083Z,51.67
2019-04-06T12:31:09.085Z,51.72
2019-04-06T12:32:09.041Z,52.89
2019-04-06T12:33:09.032Z,52.64
2019-04-06T12:34:09.012Z,53.09
2019-04-06T12:35:09.010Z,51.42
2019-04-06T12:36:09.251Z,51.69
2019-04-06T12:37:09.027Z,53.25
2019-04-06T12:38:08.973Z,52.42
2019-04-06T12:39:08.977Z,52.55
2019-04-06T12:40:09.167Z,50.44
2019-04-06T12:41:08.945Z,49.62
2019-04-06T12:42:09.252Z,48.47
2019-04-06T12:43:08.916Z,47.52
2019-04-06T12:44:08.922Z,48.61
2019-04-06T12:45:09.199Z,49.34
2019-04-06T12:46:08.986Z,49.26
2019-04-06T12:47:08.979Z,49.26
2019-04-06T12:48:08.875Z,48.54
2019-04-06T12:49:08.863Z,48.72
2019-04-06T12:50:08.852Z,47.17
2019-04-06T12:51:08.835Z,47.88
2019-04-06T12:52:08.853Z,51.49